sensor_id;sensor_type;location;lat;lon;timestamp;temperature;humidity
10802;DHT22;5453;50.852;7.102;2023-01-29T00:00:07;-1.20;99.90
10802;DHT22;5453;50.852;7.102;2023-01-29T00:02:43;-1.20;99.90
10802;DHT22;5453;50.852;7.102;2023-01-29T00:05:15;-1.20;99.90
10802;DHT22;5453;50.852;7.102;2023-01-29T00:07:47;-1.20;99.90
10802;DHT22;5453;50.852;7.102;2023-01-29T00:10:19;-1.30;99.90
10802;DHT22;5453;50.852;7.102;2023-01-29T00:12:53;-1.20;99.90
10802;DHT22;5453;50.852;7.102;2023-01-29T00:15:25;-1.20;99.90
10802;DHT22;5453;50.852;7.102;2023-01-29T00:17:57;-1.30;99.90
10802;DHT22;5453;50.852;7.102;2023-01-29T00:20:29;-1.30;99.90
10802;DHT22;5453;50.852;7.102;2023-01-29T00:23:02;-1.30;99.90
10802;DHT22;5453;50.852;7.102;2023-01-29T00:25:34;-1.30;99.90
10802;DHT22;5453;50.852;7.102;2023-01-29T00:28:07;-1.40;99.90
10802;DHT22;5453;50.852;7.102;2023-01-29T00:30:40;-1.40;99.90
10802;DHT22;5453;50.852;7.102;2023-01-29T00:33:12;-1.40;99.90
10802;DHT22;5453;50.852;7.102;2023-01-29T00:35:44;-1.40;99.90
10802;DHT22;5453;50.852;7.102;2023-01-29T00:38:16;-1.40;99.90
10802;DHT22;5453;50.852;7.102;2023-01-29T00:40:48;-1.50;99.90
10802;DHT22;5453;50.852;7.102;2023-01-29T00:43:40;-1.50;99.90
10802;DHT22;5453;50.852;7.102;2023-01-29T00:46:29;-1.50;99.90
10802;DHT22;5453;50.852;7.102;2023-01-29T00:49:02;-1.50;99.90
10802;DHT22;5453;50.852;7.102;2023-01-29T00:51:37;-1.50;99.90
10802;DHT22;5453;50.852;7.102;2023-01-29T00:54:09;-1.50;99.90
10802;DHT22;5453;50.852;7.102;2023-01-29T00:56:41;-1.60;99.90
10802;DHT22;5453;50.852;7.102;2023-01-29T00:59:16;-1.60;99.90
10802;DHT22;5453;50.852;7.102;2023-01-29T01:01:48;-1.60;99.90
10802;DHT22;5453;50.852;7.102;2023-01-29T01:04:39;-1.60;99.90
10802;DHT22;5453;50.852;7.102;2023-01-29T01:07:11;-1.60;99.90
10802;DHT22;5453;50.852;7.102;2023-01-29T01:09:43;-1.70;99.90
10802;DHT22;5453;50.852;7.102;2023-01-29T01:12:33;-1.70;99.90
10802;DHT22;5453;50.852;7.102;2023-01-29T01:15:07;-1.70;99.90
10802;DHT22;5453;50.852;7.102;2023-01-29T01:17:40;-1.70;99.90
10802;DHT22;5453;50.852;7.102;2023-01-29T01:20:12;-1.70;99.90
10802;DHT22;5453;50.852;7.102;2023-01-29T01:22:44;-1.70;99.90
10802;DHT22;5453;50.852;7.102;2023-01-29T01:25:17;-1.70;99.90
10802;DHT22;5453;50.852;7.102;2023-01-29T01:27:51;-1.80;99.90
10802;DHT22;5453;50.852;7.102;2023-01-29T01:30:26;-1.80;99.90
10802;DHT22;5453;50.852;7.102;2023-01-29T01:32:59;-1.80;99.90
10802;DHT22;5453;50.852;7.102;2023-01-29T01:35:31;-1.80;99.90
10802;DHT22;5453;50.852;7.102;2023-01-29T01:38:04;-1.80;99.90
10802;DHT22;5453;50.852;7.102;2023-01-29T01:40:36;-1.90;99.90
10802;DHT22;5453;50.852;7.102;2023-01-29T01:43:15;-1.80;99.90
10802;DHT22;5453;50.852;7.102;2023-01-29T01:45:49;-1.90;99.90
10802;DHT22;5453;50.852;7.102;2023-01-29T01:48:22;-1.90;99.90
10802;DHT22;5453;50.852;7.102;2023-01-29T01:50:59;-1.90;99.90
10802;DHT22;5453;50.852;7.102;2023-01-29T01:53:38;-1.90;99.90
10802;DHT22;5453;50.852;7.102;2023-01-29T01:56:15;-1.90;99.90
10802;DHT22;5453;50.852;7.102;2023-01-29T01:58:52;-1.90;99.90
10802;DHT22;5453;50.852;7.102;2023-01-29T02:01:27;-1.90;99.90
10802;DHT22;5453;50.852;7.102;2023-01-29T02:04:03;-1.90;99.90
10802;DHT22;5453;50.852;7.102;2023-01-29T02:06:55;-1.90;99.90
10802;DHT22;5453;50.852;7.102;2023-01-29T02:09:51;-1.90;99.90
10802;DHT22;5453;50.852;7.102;2023-01-29T02:12:25;-1.90;99.90
10802;DHT22;5453;50.852;7.102;2023-01-29T02:15:02;-1.90;99.90
10802;DHT22;5453;50.852;7.102;2023-01-29T02:17:36;-2.00;99.90
10802;DHT22;5453;50.852;7.102;2023-01-29T02:20:14;-1.90;99.90
10802;DHT22;5453;50.852;7.102;2023-01-29T02:26:39;-1.90;99.90
10802;DHT22;5453;50.852;7.102;2023-01-29T02:29:23;-1.90;99.90
10802;DHT22;5453;50.852;7.102;2023-01-29T02:32:12;-1.90;99.90
10802;DHT22;5453;50.852;7.102;2023-01-29T02:34:57;-1.90;99.90
10802;DHT22;5453;50.852;7.102;2023-01-29T02:37:56;-2.00;99.90
10802;DHT22;5453;50.852;7.102;2023-01-29T02:40:40;-2.00;99.90
10802;DHT22;5453;50.852;7.102;2023-01-29T02:43:26;-2.00;99.90
10802;DHT22;5453;50.852;7.102;2023-01-29T02:46:10;-2.10;99.90
10802;DHT22;5453;50.852;7.102;2023-01-29T02:48:52;-2.10;99.90
10802;DHT22;5453;50.852;7.102;2023-01-29T02:51:33;-2.10;99.90
10802;DHT22;5453;50.852;7.102;2023-01-29T02:54:12;-2.10;99.90
10802;DHT22;5453;50.852;7.102;2023-01-29T02:56:50;-2.10;99.90
10802;DHT22;5453;50.852;7.102;2023-01-29T02:59:30;-2.20;99.90
10802;DHT22;5453;50.852;7.102;2023-01-29T03:02:11;-2.20;99.90
10802;DHT22;5453;50.852;7.102;2023-01-29T03:04:49;-2.20;99.90
10802;DHT22;5453;50.852;7.102;2023-01-29T03:07:27;-2.20;99.90
10802;DHT22;5453;50.852;7.102;2023-01-29T03:10:34;-2.20;99.90
10802;DHT22;5453;50.852;7.102;2023-01-29T03:13:12;-2.20;99.90
10802;DHT22;5453;50.852;7.102;2023-01-29T03:15:50;-2.20;99.90
10802;DHT22;5453;50.852;7.102;2023-01-29T03:18:54;-2.20;99.90
10802;DHT22;5453;50.852;7.102;2023-01-29T03:21:31;-2.30;99.90
10802;DHT22;5453;50.852;7.102;2023-01-29T03:24:34;-2.30;99.90
10802;DHT22;5453;50.852;7.102;2023-01-29T03:27:30;-2.20;99.90
10802;DHT22;5453;50.852;7.102;2023-01-29T03:30:24;-2.20;99.90
10802;DHT22;5453;50.852;7.102;2023-01-29T03:33:39;-2.20;99.90
10802;DHT22;5453;50.852;7.102;2023-01-29T03:36:20;-2.20;99.90
10802;DHT22;5453;50.852;7.102;2023-01-29T03:38:55;-2.20;99.90
10802;DHT22;5453;50.852;7.102;2023-01-29T03:41:32;-2.20;99.90
10802;DHT22;5453;50.852;7.102;2023-01-29T03:44:12;-2.20;99.90
10802;DHT22;5453;50.852;7.102;2023-01-29T03:46:49;-2.20;99.90
10802;DHT22;5453;50.852;7.102;2023-01-29T03:49:31;-2.20;99.90
10802;DHT22;5453;50.852;7.102;2023-01-29T03:52:15;-2.10;99.90
10802;DHT22;5453;50.852;7.102;2023-01-29T03:54:55;-2.10;99.90
10802;DHT22;5453;50.852;7.102;2023-01-29T03:57:35;-2.10;99.90
10802;DHT22;5453;50.852;7.102;2023-01-29T04:00:15;-2.20;99.90
10802;DHT22;5453;50.852;7.102;2023-01-29T04:03:07;-2.20;99.90
10802;DHT22;5453;50.852;7.102;2023-01-29T04:05:46;-2.20;99.90
10802;DHT22;5453;50.852;7.102;2023-01-29T04:08:33;-2.20;99.90
10802;DHT22;5453;50.852;7.102;2023-01-29T04:11:13;-2.30;99.90
10802;DHT22;5453;50.852;7.102;2023-01-29T04:13:47;-2.20;99.90
10802;DHT22;5453;50.852;7.102;2023-01-29T04:16:25;-2.30;99.90
10802;DHT22;5453;50.852;7.102;2023-01-29T04:19:18;-2.30;99.90
10802;DHT22;5453;50.852;7.102;2023-01-29T04:22:01;-2.30;99.90
10802;DHT22;5453;50.852;7.102;2023-01-29T04:24:36;-2.40;99.90
10802;DHT22;5453;50.852;7.102;2023-01-29T04:27:19;-2.40;99.90
10802;DHT22;5453;50.852;7.102;2023-01-29T04:30:10;-2.40;99.90
10802;DHT22;5453;50.852;7.102;2023-01-29T04:33:08;-2.40;99.90
10802;DHT22;5453;50.852;7.102;2023-01-29T04:35:57;-2.40;99.90
10802;DHT22;5453;50.852;7.102;2023-01-29T04:38:46;-2.40;99.90
10802;DHT22;5453;50.852;7.102;2023-01-29T04:41:30;-2.40;99.90
10802;DHT22;5453;50.852;7.102;2023-01-29T04:44:09;-2.40;99.90
10802;DHT22;5453;50.852;7.102;2023-01-29T04:46:48;-2.40;99.90
10802;DHT22;5453;50.852;7.102;2023-01-29T04:49:30;-2.40;99.90
10802;DHT22;5453;50.852;7.102;2023-01-29T04:52:11;-2.40;99.90
10802;DHT22;5453;50.852;7.102;2023-01-29T04:54:54;-2.40;99.90
10802;DHT22;5453;50.852;7.102;2023-01-29T04:57:42;-2.40;99.90
10802;DHT22;5453;50.852;7.102;2023-01-29T05:00:20;-2.40;99.90
10802;DHT22;5453;50.852;7.102;2023-01-29T05:02:56;-2.40;99.90
10802;DHT22;5453;50.852;7.102;2023-01-29T05:05:28;-2.40;99.90
10802;DHT22;5453;50.852;7.102;2023-01-29T05:08:03;-2.40;99.90
10802;DHT22;5453;50.852;7.102;2023-01-29T05:10:37;-2.40;99.90
10802;DHT22;5453;50.852;7.102;2023-01-29T05:13:13;-2.40;99.90
10802;DHT22;5453;50.852;7.102;2023-01-29T05:15:49;-2.50;99.90
10802;DHT22;5453;50.852;7.102;2023-01-29T05:18:25;-2.50;99.90
10802;DHT22;5453;50.852;7.102;2023-01-29T05:21:00;-2.50;99.90
10802;DHT22;5453;50.852;7.102;2023-01-29T05:23:34;-2.50;99.90
10802;DHT22;5453;50.852;7.102;2023-01-29T05:26:06;-2.50;99.90
10802;DHT22;5453;50.852;7.102;2023-01-29T05:28:39;-2.50;99.90
10802;DHT22;5453;50.852;7.102;2023-01-29T05:31:11;-2.50;99.90
10802;DHT22;5453;50.852;7.102;2023-01-29T05:33:43;-2.50;99.90
10802;DHT22;5453;50.852;7.102;2023-01-29T05:36:17;-2.40;99.90
10802;DHT22;5453;50.852;7.102;2023-01-29T05:38:49;-2.40;99.90
10802;DHT22;5453;50.852;7.102;2023-01-29T05:41:21;-2.40;99.90
10802;DHT22;5453;50.852;7.102;2023-01-29T05:43:56;-2.40;99.90
10802;DHT22;5453;50.852;7.102;2023-01-29T05:46:28;-2.40;99.90
10802;DHT22;5453;50.852;7.102;2023-01-29T05:49:00;-2.50;99.90
10802;DHT22;5453;50.852;7.102;2023-01-29T05:51:32;-2.50;99.90
10802;DHT22;5453;50.852;7.102;2023-01-29T05:54:05;-2.40;99.90
10802;DHT22;5453;50.852;7.102;2023-01-29T05:56:37;-2.50;99.90
10802;DHT22;5453;50.852;7.102;2023-01-29T05:59:11;-2.50;99.90
10802;DHT22;5453;50.852;7.102;2023-01-29T06:01:43;-2.40;99.90
10802;DHT22;5453;50.852;7.102;2023-01-29T06:04:15;-2.40;99.90
10802;DHT22;5453;50.852;7.102;2023-01-29T06:06:47;-2.50;99.90
10802;DHT22;5453;50.852;7.102;2023-01-29T06:09:19;-2.50;99.90
10802;DHT22;5453;50.852;7.102;2023-01-29T06:11:51;-2.50;99.90
10802;DHT22;5453;50.852;7.102;2023-01-29T06:14:25;-2.50;99.90
10802;DHT22;5453;50.852;7.102;2023-01-29T06:16:57;-2.50;99.90
10802;DHT22;5453;50.852;7.102;2023-01-29T06:19:30;-2.50;99.90
10802;DHT22;5453;50.852;7.102;2023-01-29T06:22:03;-2.50;99.90
10802;DHT22;5453;50.852;7.102;2023-01-29T06:24:35;-2.50;99.90
10802;DHT22;5453;50.852;7.102;2023-01-29T06:27:07;-2.50;99.90
10802;DHT22;5453;50.852;7.102;2023-01-29T06:29:41;-2.50;99.90
10802;DHT22;5453;50.852;7.102;2023-01-29T06:32:14;-2.50;99.90
10802;DHT22;5453;50.852;7.102;2023-01-29T06:34:46;-2.50;99.90
10802;DHT22;5453;50.852;7.102;2023-01-29T06:37:18;-2.50;99.90
10802;DHT22;5453;50.852;7.102;2023-01-29T06:39:50;-2.50;99.90
10802;DHT22;5453;50.852;7.102;2023-01-29T06:42:22;-2.50;99.90
10802;DHT22;5453;50.852;7.102;2023-01-29T06:44:58;-2.50;99.90
10802;DHT22;5453;50.852;7.102;2023-01-29T06:47:30;-2.60;99.90
10802;DHT22;5453;50.852;7.102;2023-01-29T06:50:04;-2.60;99.90
10802;DHT22;5453;50.852;7.102;2023-01-29T06:52:36;-2.60;99.90
10802;DHT22;5453;50.852;7.102;2023-01-29T06:55:08;-2.60;99.90
10802;DHT22;5453;50.852;7.102;2023-01-29T06:57:41;-2.60;99.90
10802;DHT22;5453;50.852;7.102;2023-01-29T07:00:15;-2.60;99.90
10802;DHT22;5453;50.852;7.102;2023-01-29T07:02:48;-2.60;99.90
10802;DHT22;5453;50.852;7.102;2023-01-29T07:05:20;-2.60;99.90
10802;DHT22;5453;50.852;7.102;2023-01-29T07:07:52;-2.50;99.90
10802;DHT22;5453;50.852;7.102;2023-01-29T07:10:24;-2.50;99.90
10802;DHT22;5453;50.852;7.102;2023-01-29T07:12:58;-2.40;99.90
10802;DHT22;5453;50.852;7.102;2023-01-29T07:15:31;-2.40;99.90
10802;DHT22;5453;50.852;7.102;2023-01-29T07:18:03;-2.30;99.90
10802;DHT22;5453;50.852;7.102;2023-01-29T07:20:42;-2.30;99.90
10802;DHT22;5453;50.852;7.102;2023-01-29T07:23:14;-2.20;99.90
10802;DHT22;5453;50.852;7.102;2023-01-29T07:25:47;-2.10;99.90
10802;DHT22;5453;50.852;7.102;2023-01-29T07:28:19;-2.10;99.90
10802;DHT22;5453;50.852;7.102;2023-01-29T07:30:56;-2.00;99.90
10802;DHT22;5453;50.852;7.102;2023-01-29T07:33:28;-2.00;99.90
10802;DHT22;5453;50.852;7.102;2023-01-29T07:36:00;-1.90;99.90
10802;DHT22;5453;50.852;7.102;2023-01-29T07:38:32;-1.90;99.90
10802;DHT22;5453;50.852;7.102;2023-01-29T07:41:04;-1.90;99.90
10802;DHT22;5453;50.852;7.102;2023-01-29T07:43:37;-1.80;99.90
10802;DHT22;5453;50.852;7.102;2023-01-29T07:46:10;-1.80;99.90
10802;DHT22;5453;50.852;7.102;2023-01-29T07:48:42;-1.70;99.90
10802;DHT22;5453;50.852;7.102;2023-01-29T07:51:14;-1.60;99.90
10802;DHT22;5453;50.852;7.102;2023-01-29T07:53:47;-1.60;99.90
10802;DHT22;5453;50.852;7.102;2023-01-29T07:56:20;-1.50;99.90
10802;DHT22;5453;50.852;7.102;2023-01-29T07:58:52;-1.40;99.90
10802;DHT22;5453;50.852;7.102;2023-01-29T08:01:25;-1.30;99.90
10802;DHT22;5453;50.852;7.102;2023-01-29T08:03:57;-1.30;99.90
10802;DHT22;5453;50.852;7.102;2023-01-29T08:06:29;-1.20;99.90
10802;DHT22;5453;50.852;7.102;2023-01-29T08:09:02;-1.10;99.90
10802;DHT22;5453;50.852;7.102;2023-01-29T08:11:34;-1.10;99.90
10802;DHT22;5453;50.852;7.102;2023-01-29T08:14:06;-1.00;99.90
10802;DHT22;5453;50.852;7.102;2023-01-29T08:16:40;-0.90;99.90
10802;DHT22;5453;50.852;7.102;2023-01-29T08:19:12;-0.90;99.90
10802;DHT22;5453;50.852;7.102;2023-01-29T08:21:44;-0.80;99.90
10802;DHT22;5453;50.852;7.102;2023-01-29T08:24:16;-0.70;99.90
10802;DHT22;5453;50.852;7.102;2023-01-29T08:26:48;-0.70;99.90
10802;DHT22;5453;50.852;7.102;2023-01-29T08:29:20;-0.60;99.90
10802;DHT22;5453;50.852;7.102;2023-01-29T08:31:54;-0.50;99.90
10802;DHT22;5453;50.852;7.102;2023-01-29T08:34:26;-0.50;99.90
10802;DHT22;5453;50.852;7.102;2023-01-29T08:36:58;-0.50;99.90
10802;DHT22;5453;50.852;7.102;2023-01-29T08:39:30;-0.40;99.90
10802;DHT22;5453;50.852;7.102;2023-01-29T08:42:03;-0.40;99.90
10802;DHT22;5453;50.852;7.102;2023-01-29T08:44:35;-0.40;99.90
10802;DHT22;5453;50.852;7.102;2023-01-29T08:47:09;-0.40;99.90
10802;DHT22;5453;50.852;7.102;2023-01-29T08:49:41;-0.30;99.90
10802;DHT22;5453;50.852;7.102;2023-01-29T08:52:13;-0.30;99.90
10802;DHT22;5453;50.852;7.102;2023-01-29T08:54:45;-0.40;99.90
10802;DHT22;5453;50.852;7.102;2023-01-29T08:57:17;0.00;99.90
10802;DHT22;5453;50.852;7.102;2023-01-29T08:59:50;0.10;99.90
10802;DHT22;5453;50.852;7.102;2023-01-29T09:02:23;0.20;99.90
10802;DHT22;5453;50.852;7.102;2023-01-29T09:04:55;0.10;99.90
10802;DHT22;5453;50.852;7.102;2023-01-29T09:07:28;0.10;99.90
10802;DHT22;5453;50.852;7.102;2023-01-29T09:10:00;0.10;99.90
10802;DHT22;5453;50.852;7.102;2023-01-29T09:12:32;0.10;99.90
10802;DHT22;5453;50.852;7.102;2023-01-29T09:15:05;0.10;99.90
10802;DHT22;5453;50.852;7.102;2023-01-29T09:17:39;0.00;99.90
10802;DHT22;5453;50.852;7.102;2023-01-29T09:20:12;0.10;99.90
10802;DHT22;5453;50.852;7.102;2023-01-29T09:22:45;0.00;99.90
10802;DHT22;5453;50.852;7.102;2023-01-29T09:25:17;0.10;99.90
10802;DHT22;5453;50.852;7.102;2023-01-29T09:27:49;0.10;99.90
10802;DHT22;5453;50.852;7.102;2023-01-29T09:30:21;0.20;99.90
10802;DHT22;5453;50.852;7.102;2023-01-29T09:32:55;0.70;99.90
10802;DHT22;5453;50.852;7.102;2023-01-29T09:35:27;0.70;99.90
10802;DHT22;5453;50.852;7.102;2023-01-29T09:37:59;0.70;99.90
10802;DHT22;5453;50.852;7.102;2023-01-29T09:40:40;0.60;99.90
10802;DHT22;5453;50.852;7.102;2023-01-29T09:43:20;0.50;99.90
10802;DHT22;5453;50.852;7.102;2023-01-29T09:45:59;0.60;99.90
10802;DHT22;5453;50.852;7.102;2023-01-29T09:48:35;0.60;99.90
10802;DHT22;5453;50.852;7.102;2023-01-29T09:51:14;0.60;99.90
10802;DHT22;5453;50.852;7.102;2023-01-29T09:53:57;0.70;99.90
10802;DHT22;5453;50.852;7.102;2023-01-29T09:56:36;0.70;99.90
10802;DHT22;5453;50.852;7.102;2023-01-29T10:01:49;0.60;99.90
10802;DHT22;5453;50.852;7.102;2023-01-29T10:04:56;0.60;99.90
10802;DHT22;5453;50.852;7.102;2023-01-29T10:08:01;0.70;99.90
10802;DHT22;5453;50.852;7.102;2023-01-29T10:10:58;0.70;99.90
10802;DHT22;5453;50.852;7.102;2023-01-29T10:13:41;0.80;99.90
10802;DHT22;5453;50.852;7.102;2023-01-29T10:16:24;0.80;99.90
10802;DHT22;5453;50.852;7.102;2023-01-29T10:19:17;0.90;99.90
10802;DHT22;5453;50.852;7.102;2023-01-29T10:22:23;1.00;99.90
10802;DHT22;5453;50.852;7.102;2023-01-29T10:25:04;1.10;99.90
10802;DHT22;5453;50.852;7.102;2023-01-29T10:27:39;1.20;99.90
10802;DHT22;5453;50.852;7.102;2023-01-29T10:30:24;1.20;99.90
10802;DHT22;5453;50.852;7.102;2023-01-29T10:33:01;1.30;99.90
10802;DHT22;5453;50.852;7.102;2023-01-29T10:35:37;1.30;99.90
10802;DHT22;5453;50.852;7.102;2023-01-29T10:38:23;1.40;99.90
10802;DHT22;5453;50.852;7.102;2023-01-29T10:41:12;1.40;99.90
10802;DHT22;5453;50.852;7.102;2023-01-29T10:44:14;1.40;99.90
10802;DHT22;5453;50.852;7.102;2023-01-29T10:47:05;1.50;99.90
10802;DHT22;5453;50.852;7.102;2023-01-29T10:50:04;1.70;99.90
10802;DHT22;5453;50.852;7.102;2023-01-29T10:53:03;1.80;99.90
10802;DHT22;5453;50.852;7.102;2023-01-29T10:55:53;1.90;99.90
10802;DHT22;5453;50.852;7.102;2023-01-29T10:58:33;1.90;99.90
10802;DHT22;5453;50.852;7.102;2023-01-29T11:01:07;1.80;99.90
10802;DHT22;5453;50.852;7.102;2023-01-29T11:03:40;1.80;99.90
10802;DHT22;5453;50.852;7.102;2023-01-29T11:06:17;1.80;99.90
10802;DHT22;5453;50.852;7.102;2023-01-29T11:08:54;1.80;99.90
10802;DHT22;5453;50.852;7.102;2023-01-29T11:11:35;1.80;99.90
10802;DHT22;5453;50.852;7.102;2023-01-29T11:14:14;1.70;99.90
10802;DHT22;5453;50.852;7.102;2023-01-29T11:16:49;1.70;99.90
10802;DHT22;5453;50.852;7.102;2023-01-29T11:19:37;1.70;99.90
10802;DHT22;5453;50.852;7.102;2023-01-29T11:22:12;1.70;99.90
10802;DHT22;5453;50.852;7.102;2023-01-29T11:24:46;1.80;99.90
10802;DHT22;5453;50.852;7.102;2023-01-29T11:27:43;1.80;99.90
10802;DHT22;5453;50.852;7.102;2023-01-29T11:30:21;1.80;99.90
10802;DHT22;5453;50.852;7.102;2023-01-29T11:33:06;1.80;99.90
10802;DHT22;5453;50.852;7.102;2023-01-29T11:35:40;1.80;99.90
10802;DHT22;5453;50.852;7.102;2023-01-29T11:38:21;1.80;99.90
10802;DHT22;5453;50.852;7.102;2023-01-29T11:41:04;1.80;99.90
10802;DHT22;5453;50.852;7.102;2023-01-29T11:43:38;1.90;99.90
10802;DHT22;5453;50.852;7.102;2023-01-29T11:46:12;1.90;99.90
10802;DHT22;5453;50.852;7.102;2023-01-29T11:48:48;1.90;99.90
10802;DHT22;5453;50.852;7.102;2023-01-29T11:51:25;1.90;99.90
10802;DHT22;5453;50.852;7.102;2023-01-29T11:54:00;2.00;99.90
10802;DHT22;5453;50.852;7.102;2023-01-29T11:56:37;2.00;99.90
10802;DHT22;5453;50.852;7.102;2023-01-29T11:59:29;2.10;99.90
10802;DHT22;5453;50.852;7.102;2023-01-29T12:02:27;2.10;99.90
10802;DHT22;5453;50.852;7.102;2023-01-29T12:05:05;2.20;99.90
10802;DHT22;5453;50.852;7.102;2023-01-29T12:07:47;2.20;99.90
10802;DHT22;5453;50.852;7.102;2023-01-29T12:10:30;2.20;99.90
10802;DHT22;5453;50.852;7.102;2023-01-29T12:13:05;2.30;99.90
10802;DHT22;5453;50.852;7.102;2023-01-29T12:15:42;2.30;99.90
10802;DHT22;5453;50.852;7.102;2023-01-29T12:18:21;2.30;99.90
10802;DHT22;5453;50.852;7.102;2023-01-29T12:21:00;2.30;99.90
10802;DHT22;5453;50.852;7.102;2023-01-29T12:23:37;2.40;99.90
10802;DHT22;5453;50.852;7.102;2023-01-29T12:26:14;2.40;99.90
10802;DHT22;5453;50.852;7.102;2023-01-29T12:28:53;2.40;99.90
10802;DHT22;5453;50.852;7.102;2023-01-29T12:31:41;2.50;99.90
10802;DHT22;5453;50.852;7.102;2023-01-29T12:34:22;2.50;99.90
10802;DHT22;5453;50.852;7.102;2023-01-29T12:37:03;2.50;99.90
10802;DHT22;5453;50.852;7.102;2023-01-29T12:39:43;2.50;99.90
10802;DHT22;5453;50.852;7.102;2023-01-29T12:42:17;2.50;99.90
10802;DHT22;5453;50.852;7.102;2023-01-29T12:44:55;2.50;99.90
10802;DHT22;5453;50.852;7.102;2023-01-29T12:47:34;2.50;99.90
10802;DHT22;5453;50.852;7.102;2023-01-29T12:50:16;2.50;99.90
10802;DHT22;5453;50.852;7.102;2023-01-29T12:52:54;2.60;99.90
10802;DHT22;5453;50.852;7.102;2023-01-29T12:55:31;2.70;99.90
10802;DHT22;5453;50.852;7.102;2023-01-29T12:58:11;2.80;99.90
10802;DHT22;5453;50.852;7.102;2023-01-29T13:00:48;2.90;99.90
10802;DHT22;5453;50.852;7.102;2023-01-29T13:03:28;2.90;99.90
10802;DHT22;5453;50.852;7.102;2023-01-29T13:06:07;3.00;99.90
10802;DHT22;5453;50.852;7.102;2023-01-29T13:08:44;3.00;99.90
10802;DHT22;5453;50.852;7.102;2023-01-29T13:11:23;3.10;99.90
10802;DHT22;5453;50.852;7.102;2023-01-29T13:13:59;3.00;99.90
10802;DHT22;5453;50.852;7.102;2023-01-29T13:16:37;3.10;99.90
10802;DHT22;5453;50.852;7.102;2023-01-29T13:19:21;3.10;99.90
10802;DHT22;5453;50.852;7.102;2023-01-29T13:22:00;3.20;99.90
10802;DHT22;5453;50.852;7.102;2023-01-29T13:24:38;3.20;99.90
10802;DHT22;5453;50.852;7.102;2023-01-29T13:27:21;3.20;99.90
10802;DHT22;5453;50.852;7.102;2023-01-29T13:29:55;3.40;99.90
10802;DHT22;5453;50.852;7.102;2023-01-29T13:32:29;3.40;99.90
10802;DHT22;5453;50.852;7.102;2023-01-29T13:35:11;3.40;99.90
10802;DHT22;5453;50.852;7.102;2023-01-29T13:37:47;3.40;99.90
10802;DHT22;5453;50.852;7.102;2023-01-29T13:40:23;3.40;99.90
10802;DHT22;5453;50.852;7.102;2023-01-29T13:42:57;3.50;99.90
10802;DHT22;5453;50.852;7.102;2023-01-29T13:45:33;3.50;99.90
10802;DHT22;5453;50.852;7.102;2023-01-29T13:48:08;3.70;99.90
10802;DHT22;5453;50.852;7.102;2023-01-29T13:50:44;3.90;99.90
10802;DHT22;5453;50.852;7.102;2023-01-29T13:53:21;4.10;99.90
10802;DHT22;5453;50.852;7.102;2023-01-29T13:56:28;4.20;99.90
10802;DHT22;5453;50.852;7.102;2023-01-29T13:59:22;4.10;99.90
10802;DHT22;5453;50.852;7.102;2023-01-29T14:02:23;4.70;99.90
10802;DHT22;5453;50.852;7.102;2023-01-29T14:05:31;5.00;99.90
10802;DHT22;5453;50.852;7.102;2023-01-29T14:08:40;4.90;99.90
10802;DHT22;5453;50.852;7.102;2023-01-29T14:11:33;4.70;99.90
10802;DHT22;5453;50.852;7.102;2023-01-29T14:17:22;4.30;99.90
10802;DHT22;5453;50.852;7.102;2023-01-29T14:20:00;4.20;99.90
10802;DHT22;5453;50.852;7.102;2023-01-29T14:22:34;4.20;99.90
10802;DHT22;5453;50.852;7.102;2023-01-29T14:25:15;4.10;99.90
10802;DHT22;5453;50.852;7.102;2023-01-29T14:27:49;4.10;99.90
10802;DHT22;5453;50.852;7.102;2023-01-29T14:30:21;4.00;99.90
10802;DHT22;5453;50.852;7.102;2023-01-29T14:32:54;4.00;99.90
10802;DHT22;5453;50.852;7.102;2023-01-29T14:35:29;3.90;99.90
10802;DHT22;5453;50.852;7.102;2023-01-29T14:38:04;3.90;99.90
10802;DHT22;5453;50.852;7.102;2023-01-29T14:40:38;4.20;99.90
10802;DHT22;5453;50.852;7.102;2023-01-29T14:43:16;4.30;99.90
10802;DHT22;5453;50.852;7.102;2023-01-29T14:45:49;4.40;99.90
10802;DHT22;5453;50.852;7.102;2023-01-29T14:48:38;4.30;99.90
10802;DHT22;5453;50.852;7.102;2023-01-29T14:51:13;4.20;99.90
10802;DHT22;5453;50.852;7.102;2023-01-29T14:53:59;4.10;99.90
10802;DHT22;5453;50.852;7.102;2023-01-29T14:56:39;4.00;99.90
10802;DHT22;5453;50.852;7.102;2023-01-29T14:59:16;4.10;99.90
10802;DHT22;5453;50.852;7.102;2023-01-29T15:01:53;4.10;99.90
10802;DHT22;5453;50.852;7.102;2023-01-29T15:04:26;4.10;99.90
10802;DHT22;5453;50.852;7.102;2023-01-29T15:07:02;4.00;99.90
10802;DHT22;5453;50.852;7.102;2023-01-29T15:09:39;4.00;99.90
10802;DHT22;5453;50.852;7.102;2023-01-29T15:12:24;4.00;99.90
10802;DHT22;5453;50.852;7.102;2023-01-29T15:15:06;3.90;99.90
10802;DHT22;5453;50.852;7.102;2023-01-29T15:17:52;3.80;99.90
10802;DHT22;5453;50.852;7.102;2023-01-29T15:20:30;3.80;99.90
10802;DHT22;5453;50.852;7.102;2023-01-29T15:23:25;3.80;99.90
10802;DHT22;5453;50.852;7.102;2023-01-29T15:26:00;3.70;99.90
10802;DHT22;5453;50.852;7.102;2023-01-29T15:28:34;3.70;99.90
10802;DHT22;5453;50.852;7.102;2023-01-29T15:31:10;3.70;99.90
10802;DHT22;5453;50.852;7.102;2023-01-29T15:33:45;3.70;99.90
10802;DHT22;5453;50.852;7.102;2023-01-29T15:36:21;3.60;99.90
10802;DHT22;5453;50.852;7.102;2023-01-29T15:39:06;3.60;99.90
10802;DHT22;5453;50.852;7.102;2023-01-29T15:41:44;3.60;99.90
10802;DHT22;5453;50.852;7.102;2023-01-29T15:44:20;4.10;99.90
10802;DHT22;5453;50.852;7.102;2023-01-29T15:46:54;4.20;99.90
10802;DHT22;5453;50.852;7.102;2023-01-29T15:49:30;4.10;99.90
10802;DHT22;5453;50.852;7.102;2023-01-29T15:52:06;4.00;99.90
10802;DHT22;5453;50.852;7.102;2023-01-29T15:54:39;4.00;99.90
10802;DHT22;5453;50.852;7.102;2023-01-29T15:57:19;3.90;99.90
10802;DHT22;5453;50.852;7.102;2023-01-29T15:59:56;4.20;99.90
10802;DHT22;5453;50.852;7.102;2023-01-29T16:02:36;4.20;99.90
10802;DHT22;5453;50.852;7.102;2023-01-29T16:05:13;4.10;99.90
10802;DHT22;5453;50.852;7.102;2023-01-29T16:07:47;4.00;99.90
10802;DHT22;5453;50.852;7.102;2023-01-29T16:10:21;4.00;99.90
10802;DHT22;5453;50.852;7.102;2023-01-29T16:12:56;3.90;99.90
10802;DHT22;5453;50.852;7.102;2023-01-29T16:15:34;3.80;99.90
10802;DHT22;5453;50.852;7.102;2023-01-29T16:18:19;3.80;99.90
10802;DHT22;5453;50.852;7.102;2023-01-29T16:20:54;3.80;99.90
10802;DHT22;5453;50.852;7.102;2023-01-29T16:23:29;3.70;99.90
10802;DHT22;5453;50.852;7.102;2023-01-29T16:26:05;3.70;99.90
10802;DHT22;5453;50.852;7.102;2023-01-29T16:28:40;3.60;99.90
10802;DHT22;5453;50.852;7.102;2023-01-29T16:31:20;3.60;99.90
10802;DHT22;5453;50.852;7.102;2023-01-29T16:33:55;3.60;99.90
10802;DHT22;5453;50.852;7.102;2023-01-29T16:36:28;3.50;99.90
10802;DHT22;5453;50.852;7.102;2023-01-29T16:39:03;3.50;99.90
10802;DHT22;5453;50.852;7.102;2023-01-29T16:41:36;3.50;99.90
10802;DHT22;5453;50.852;7.102;2023-01-29T16:44:30;3.50;99.90
10802;DHT22;5453;50.852;7.102;2023-01-29T16:47:12;3.50;99.90
10802;DHT22;5453;50.852;7.102;2023-01-29T16:49:47;3.50;99.90
10802;DHT22;5453;50.852;7.102;2023-01-29T16:52:24;3.40;99.90
10802;DHT22;5453;50.852;7.102;2023-01-29T16:55:13;3.40;99.90
10802;DHT22;5453;50.852;7.102;2023-01-29T16:57:52;3.40;99.90
10802;DHT22;5453;50.852;7.102;2023-01-29T17:00:27;3.40;99.90
10802;DHT22;5453;50.852;7.102;2023-01-29T17:03:03;3.40;99.90
10802;DHT22;5453;50.852;7.102;2023-01-29T17:05:37;3.30;99.90
10802;DHT22;5453;50.852;7.102;2023-01-29T17:08:15;3.30;99.90
10802;DHT22;5453;50.852;7.102;2023-01-29T17:10:52;3.30;99.90